Time;durP1;ratioP1;P1;durP2;ratioP2;P2;SDS_P1;SDS_P2;PMS_P1;PMS_P2;Temp;Humidity;BMP_temperature;BMP_pressure;BME280_temperature;BME280_humidity;BME280_pressure;Samples;Min_cycle;Max_cycle;Signal;HPM_P1;HPM_P2
2023/09/07 00:00:53;;;;;;;9.10;7.18;;;;;;;-145.68;100.00;74381.34;10406697;28;20243;-70
2023/09/07 00:05:53;;;;;;;9.13;7.10;;;;;;;-145.68;100.00;74383.34;10408449;28;20243;-70
2023/09/07 00:10:54;;;;;;;8.15;6.72;;;;;;;-145.68;100.00;74377.38;10414205;28;20604;-70
2023/09/07 00:15:58;;;;;;;9.30;6.22;;;;;;;-145.68;100.00;74377.38;10414173;28;20646;-70
2023/09/07 00:20:59;;;;;;;11.75;7.80;;;;;;;-145.68;100.00;74393.34;10413905;28;20192;-70
2023/09/07 00:26:00;;;;;;;10.18;6.43;;;;;;;-145.68;100.00;74391.34;10413540;28;20221;-70
2023/09/07 00:31:00;;;;;;;8.65;6.47;;;;;;;-145.68;100.00;74385.34;10413222;28;20220;-70
2023/09/07 00:36:02;;;;;;;10.70;5.85;;;;;;;-145.68;100.00;74383.34;10412173;28;20209;-70
2023/09/07 00:41:02;;;;;;;7.97;6.78;;;;;;;-145.68;100.00;74383.34;10413447;28;20528;-71
2023/09/07 00:46:03;;;;;;;13.27;6.90;;;;;;;-145.68;100.00;74389.34;10412861;28;20204;-70
2023/09/07 00:51:03;;;;;;;8.75;5.95;;;;;;;-145.68;100.00;74383.34;10413055;28;20207;-70
2023/09/07 00:56:05;;;;;;;7.90;6.18;;;;;;;-145.68;100.00;74371.38;10411257;28;20213;-70
2023/09/07 01:01:05;;;;;;;7.88;7.00;;;;;;;-145.68;100.00;74355.38;10394343;28;20192;-70
2023/09/07 01:06:16;;;;;;;8.00;6.28;;;;;;;-145.68;100.00;74363.38;10393966;28;20228;-70
2023/09/07 01:11:17;;;;;;;9.77;6.20;;;;;;;-145.68;100.00;74377.38;10410843;28;20271;-70
2023/09/07 01:16:18;;;;;;;8.20;6.53;;;;;;;-145.68;100.00;74367.38;10410055;28;20196;-70
2023/09/07 01:21:19;;;;;;;8.07;6.07;;;;;;;-145.68;100.00;74381.34;10410111;28;20647;-70
2023/09/07 01:26:19;;;;;;;7.95;6.10;;;;;;;-145.68;100.00;74395.34;10382885;28;20225;-70
2023/09/07 01:31:19;;;;;;;9.70;5.75;;;;;;;-145.68;100.00;74373.38;10373126;28;20660;-70
2023/09/07 01:36:21;;;;;;;7.85;6.10;;;;;;;-145.68;100.00;74367.38;10372738;28;20757;-70
2023/09/07 01:41:21;;;;;;;8.43;5.97;;;;;;;-145.68;100.00;74389.34;10397369;28;20250;-70
2023/09/07 01:46:21;;;;;;;7.65;5.88;;;;;;;-145.68;100.00;74391.34;10410504;28;20208;-71
2023/09/07 01:51:22;;;;;;;10.48;5.82;;;;;;;-145.68;100.00;74381.34;10410650;28;20196;-71
2023/09/07 01:56:22;;;;;;;8.07;6.00;;;;;;;-145.68;100.00;74393.34;10410175;28;20269;-71
2023/09/07 02:01:24;;;;;;;8.45;5.68;;;;;;;-145.68;100.00;74363.38;10408729;28;20193;-70
2023/09/07 02:06:24;;;;;;;7.72;5.53;;;;;;;-145.68;100.00;74333.38;10410147;28;20227;-70
2023/09/07 02:11:25;;;;;;;6.18;5.50;;;;;;;-145.68;100.00;74311.38;10408368;28;20191;-71
2023/09/07 02:16:26;;;;;;;7.35;5.72;;;;;;;-145.68;100.00;74287.41;10407233;28;20211;-71
2023/09/07 02:21:27;;;;;;;7.03;5.38;;;;;;;-145.68;100.00;74269.41;10407118;28;20184;-70
2023/09/07 02:26:27;;;;;;;7.45;5.78;;;;;;;-145.68;100.00;74271.41;10408303;28;20553;-70
2023/09/07 02:31:27;;;;;;;10.32;5.03;;;;;;;-145.68;100.00;74275.41;10408098;28;20243;-70
2023/09/07 02:36:28;;;;;;;9.23;5.47;;;;;;;-145.68;100.00;74287.41;10408586;28;20207;-70
2023/09/07 02:41:28;;;;;;;10.68;6.07;;;;;;;-145.68;100.00;74283.41;10408723;28;20193;-70
2023/09/07 02:46:29;;;;;;;8.52;5.50;;;;;;;-145.68;100.00;74289.41;10408080;28;22238;-70
2023/09/07 02:51:30;;;;;;;10.98;5.65;;;;;;;-145.68;100.00;74295.41;10408473;28;20197;-70
2023/09/07 02:56:31;;;;;;;8.27;6.15;;;;;;;-145.68;100.00;74301.38;10406586;28;20267;-70
2023/09/07 03:01:31;;;;;;;7.18;5.28;;;;;;;-145.68;100.00;74297.41;10407955;28;20192;-70
2023/09/07 03:06:32;;;;;;;8.43;5.68;;;;;;;-145.68;100.00;74299.38;10429456;22;20252;-66
2023/09/07 03:11:34;;;;;;;6.60;5.50;;;;;;;-145.68;100.00;74307.38;10409586;28;20681;-65
2023/09/07 03:16:35;;;;;;;9.68;5.82;;;;;;;-145.68;100.00;74305.38;10435716;28;20212;-65
2023/09/07 03:21:36;;;;;;;6.75;5.95;;;;;;;-145.68;100.00;74299.38;10446493;28;20685;-65
2023/09/07 03:26:37;;;;;;;7.40;5.72;;;;;;;-145.68;100.00;74311.38;10448091;28;20196;-65
2023/09/07 03:31:37;;;;;;;8.23;6.05;;;;;;;-145.68;100.00;74321.38;10446587;28;20188;-65
2023/09/07 03:36:38;;;;;;;8.30;6.05;;;;;;;-145.68;100.00;74335.38;10446538;28;20212;-65
2023/09/07 03:41:38;;;;;;;9.20;6.07;;;;;;;-145.68;100.00;74339.38;10452547;28;20275;-65
2023/09/07 03:46:39;;;;;;;12.32;6.32;;;;;;;-145.68;100.00;74333.38;10454621;28;20195;-64
2023/09/07 03:51:39;;;;;;;12.25;5.50;;;;;;;-145.68;100.00;74327.38;10427220;28;20187;-65
2023/09/07 03:56:40;;;;;;;7.65;5.45;;;;;;;-145.68;100.00;74323.38;10455273;28;20211;-65
2023/09/07 04:01:42;;;;;;;6.47;5.38;;;;;;;-145.68;100.00;74315.38;10455137;28;20195;-64
2023/09/07 04:06:47;;;;;;;7.07;6.38;;;;;;;-145.68;100.00;74327.38;10456077;28;20587;-65
2023/09/07 04:11:47;;;;;;;9.25;6.32;;;;;;;-145.68;100.00;74331.38;10455857;28;20199;-65
2023/09/07 04:16:47;;;;;;;7.50;6.53;;;;;;;-145.68;100.00;74335.38;10455959;28;20223;-66
2023/09/07 04:21:48;;;;;;;10.23;6.20;;;;;;;-145.68;100.00;74343.38;10454248;28;20184;-65
2023/09/07 04:26:49;;;;;;;7.97;6.60;;;;;;;-145.68;100.00;74335.38;10454233;28;20199;-65
2023/09/07 04:31:50;;;;;;;11.88;6.35;;;;;;;-145.68;100.00;74343.38;10454073;28;20670;-64
2023/09/07 04:36:51;;;;;;;7.13;6.43;;;;;;;-145.68;100.00;74343.38;10419939;28;20228;-65
2023/09/07 04:41:52;;;;;;;12.30;6.90;;;;;;;-145.68;100.00;74349.38;10414319;28;20184;-66
2023/09/07 04:46:55;;;;;;;10.93;6.80;;;;;;;-145.68;100.00;74331.38;10413609;28;20236;-65
2023/09/07 04:51:57;;;;;;;11.38;6.40;;;;;;;-145.68;100.00;74321.38;10418481;28;20298;-65
2023/09/07 04:56:59;;;;;;;7.43;5.75;;;;;;;-145.68;100.00;74307.38;10417928;28;20936;-65
2023/09/07 05:02:03;;;;;;;7.78;6.32;;;;;;;-145.68;100.00;74309.38;10416073;28;20227;-64
2023/09/07 05:07:03;;;;;;;10.93;6.70;;;;;;;-145.68;100.00;74321.38;10417478;28;20216;-64
2023/09/07 05:12:04;;;;;;;10.15;6.82;;;;;;;-145.68;100.00;74321.38;10449740;28;20191;-65
2023/09/07 05:17:04;;;;;;;10.35;6.95;;;;;;;-145.68;100.00;74307.38;10414317;28;20208;-65
2023/09/07 05:22:05;;;;;;;9.32;6.60;;;;;;;-145.68;100.00;74307.38;10410022;28;20211;-65
2023/09/07 05:27:06;;;;;;;9.18;6.40;;;;;;;-145.68;100.00;74291.41;10415232;28;20216;-64
2023/09/07 05:32:09;;;;;;;10.25;6.47;;;;;;;-145.68;100.00;74221.44;10411853;28;20553;-65
2023/09/07 05:37:09;;;;;;;8.70;5.78;;;;;;;-145.68;100.00;74137.47;10413076;28;20221;-65
2023/09/07 05:42:12;;;;;;;7.72;5.28;;;;;;;-145.68;100.00;74091.47;10408588;28;20189;-65
2023/09/07 05:47:12;;;;;;;6.93;5.82;;;;;;;-145.68;100.00;74073.50;10428833;28;20200;-65
2023/09/07 05:52:13;;;;;;;7.00;4.93;;;;;;;-145.68;100.00;73983.53;10452186;28;20191;-65
2023/09/07 05:57:13;;;;;;;8.20;5.80;;;;;;;-145.68;99.41;74033.50;10450725;28;20214;-65
2023/09/07 06:02:14;;;;;;;8.23;5.50;;;;;;;-145.68;95.63;73969.53;10450396;28;20665;-65
2023/09/07 06:07:14;;;;;;;6.25;5.47;;;;;;;-145.68;94.10;73885.56;10450293;28;20224;-65
2023/09/07 06:12:15;;;;;;;13.23;5.65;;;;;;;-145.68;89.74;73835.59;10451288;28;20183;-65
2023/09/07 06:17:16;;;;;;;4.95;4.43;;;;;;;-145.68;82.61;73741.66;10449809;28;20211;-65
2023/09/07 06:22:16;;;;;;;10.07;5.80;;;;;;;-145.68;73.99;73609.72;10451071;28;20191;-65
2023/09/07 06:27:17;;;;;;;6.82;5.20;;;;;;;-145.68;68.10;73625.72;10449366;28;20298;-64
2023/09/07 06:32:18;;;;;;;5.63;4.70;;;;;;;-145.68;69.22;73545.78;10449531;28;20231;-65
2023/09/07 06:37:19;;;;;;;10.70;5.97;;;;;;;-145.68;69.82;73555.75;10447917;28;20216;-63
2023/09/07 06:42:19;;;;;;;6.55;5.05;;;;;;;-145.68;64.30;73461.81;10407034;28;20214;-65
2023/09/07 06:47:25;;;;;;;7.88;4.55;;;;;;;-145.68;63.54;73393.84;10445903;28;20594;-64
2023/09/07 06:52:25;;;;;;;6.43;4.40;;;;;;;-145.68;62.62;73363.88;10445730;28;20198;-66
2023/09/07 06:57:25;;;;;;;7.50;4.50;;;;;;;-145.68;60.76;73217.97;10438456;28;20212;-66
2023/09/07 07:02:27;;;;;;;8.90;4.38;;;;;;;-145.68;56.96;73114.03;10409985;28;20200;-65
2023/09/07 07:07:29;;;;;;;6.82;4.18;;;;;;;-145.68;55.11;73152.03;10405803;28;20227;-65
2023/09/07 07:12:30;;;;;;;11.80;5.43;;;;;;;-145.68;53.07;72960.16;10408054;28;20177;-65
2023/09/07 07:17:31;;;;;;;5.97;4.55;;;;;;;-145.68;50.62;72868.22;10408560;28;20220;-65
2023/09/07 07:22:35;;;;;;;4.90;3.95;;;;;;;-145.68;49.90;72872.22;10425929;28;20195;-66
2023/09/07 07:27:36;;;;;;;8.85;3.85;;;;;;;-145.68;47.78;72666.38;10416900;28;20675;-66
2023/09/07 07:32:36;;;;;;;7.10;3.97;;;;;;;-145.68;47.54;72728.34;10407353;28;20185;-67
2023/09/07 07:37:38;;;;;;;5.93;3.72;;;;;;;-145.68;47.65;72648.41;10407168;28;20219;-66
2023/09/07 07:42:39;;;;;;;5.75;4.38;;;;;;;-145.68;45.29;72494.53;10432042;28;20181;-66
2023/09/07 07:47:43;;;;;;;5.07;3.50;;;;;;;-145.68;40.75;72368.63;10445794;28;20211;-66
2023/09/07 07:52:43;;;;;;;7.63;2.80;;;;;;;-145.68;40.04;72370.63;10440014;28;20206;-66
2023/09/07 07:57:44;;;;;;;4.57;3.00;;;;;;;-145.68;40.17;72474.53;10446527;28;20298;-67
2023/09/07 08:02:46;;;;;;;7.30;3.20;;;;;;;-145.68;42.49;72690.38;10445343;28;20184;-67
2023/09/07 08:07:47;;;;;;;4.00;2.85;;;;;;;-145.68;41.40;72644.41;10445487;28;20641;-67
2023/09/07 08:12:48;;;;;;;3.47;3.10;;;;;;;-145.68;41.13;72554.47;10445511;28;20249;-66
2023/09/07 08:17:48;;;;;;;4.32;3.10;;;;;;;-145.68;41.29;72614.44;10444822;28;20713;-66
2023/09/07 08:22:49;;;;;;;6.68;3.28;;;;;;;-145.68;41.14;72580.47;10445468;28;20354;-67
2023/09/07 08:27:50;;;;;;;6.68;2.85;;;;;;;-145.68;40.33;72548.47;10444642;28;20207;-66
2023/09/07 08:32:51;;;;;;;5.35;3.13;;;;;;;-145.68;40.93;72618.44;10452593;28;20195;-67
2023/09/07 08:37:51;;;;;;;4.70;4.10;;;;;;;-145.68;41.85;72620.41;10453319;28;20219;-67
2023/09/07 08:42:52;;;;;;;7.35;3.40;;;;;;;-145.68;40.11;72550.47;10453756;28;20196;-66
2023/09/07 08:47:52;;;;;;;3.20;2.60;;;;;;;-145.68;40.17;72580.47;10452079;28;20944;-67
2023/09/07 08:52:53;;;;;;;2.75;2.55;;;;;;;-145.68;38.40;72556.47;10453036;28;20199;-67
2023/09/07 08:57:53;;;;;;;7.22;3.28;;;;;;;-145.68;38.63;72568.47;10448603;28;20221;-67
2023/09/07 09:02:55;;;;;;;4.63;2.80;;;;;;;-145.68;38.12;72388.63;10451013;28;20251;-67
2023/09/07 09:08:03;;;;;;;4.43;3.15;;;;;;;-145.68;35.97;72308.69;10438010;22;20255;-71
2023/09/07 09:13:04;;;;;;;4.90;2.90;;;;;;;-145.68;35.68;72378.63;10413122;28;20193;-70
2023/09/07 09:18:12;;;;;;;4.18;2.95;;;;;;;-145.68;36.59;72306.69;10451884;28;20212;-70
2023/09/07 09:23:13;;;;;;;4.10;2.80;;;;;;;-145.68;36.33;72178.81;10410560;28;20189;-71
2023/09/07 09:28:14;;;;;;;3.67;3.25;;;;;;;-145.68;36.05;72128.84;10411997;28;20212;-71
2023/09/07 09:33:14;;;;;;;7.07;4.72;;;;;;;-145.68;33.94;72074.91;10407854;28;20200;-70
2023/09/07 09:38:15;;;;;;;3.72;2.70;;;;;;;-145.68;33.23;72130.84;10411241;28;20733;-70
2023/09/07 09:43:15;;;;;;;3.92;2.70;;;;;;;-145.68;34.49;72168.81;10411455;28;20199;-70
2023/09/07 09:48:16;;;;;;;3.03;2.67;;;;;;;-145.68;33.65;72092.91;10425593;28;20204;-70
2023/09/07 09:53:18;;;;;;;5.13;2.67;;;;;;;-145.68;34.56;72134.84;10447726;28;20665;-70
2023/09/07 09:58:19;;;;;;;4.78;3.20;;;;;;;-145.68;33.24;72076.91;10450872;28;20984;-70
2023/09/07 10:03:32;;;;;;;4.10;3.23;;;;;;;-145.68;34.75;72164.81;10446933;28;20192;-69
2023/09/07 10:08:32;;;;;;;3.67;2.72;;;;;;;-145.68;34.38;72266.72;10450065;28;20810;-70
2023/09/07 10:13:35;;;;;;;8.13;2.70;;;;;;;-145.68;33.84;72140.84;10449877;28;20196;-70
2023/09/07 10:18:37;;;;;;;4.47;3.10;;;;;;;-145.68;33.72;72082.91;10450226;28;20303;-70
2023/09/07 10:23:39;;;;;;;2.92;2.72;;;;;;;-145.68;34.04;72132.84;10449399;28;20654;-70
2023/09/07 10:28:40;;;;;;;4.10;2.67;;;;;;;-145.68;34.15;72094.88;10449618;28;20180;-70
2023/09/07 10:33:40;;;;;;;4.75;3.15;;;;;;;-145.68;33.18;72064.91;10446005;28;20187;-70
2023/09/07 10:38:41;;;;;;;3.20;2.92;;;;;;;-145.68;31.42;71963.03;10448469;28;20211;-70
2023/09/07 10:43:54;;;;;;;2.60;2.40;;;;;;;-145.68;30.41;71767.22;10448956;28;20194;-70
2023/09/07 10:48:56;;;;;;;3.88;3.05;;;;;;;-145.68;30.02;71799.19;10448608;28;20193;-70
2023/09/07 10:53:56;;;;;;;3.13;2.80;;;;;;;-145.68;28.66;71757.22;10447125;28;20210;-70
2023/09/07 10:58:57;;;;;;;6.93;2.70;;;;;;;-145.68;30.13;72132.84;10447990;28;20550;-71
2023/09/07 11:03:57;;;;;;;3.53;3.13;;;;;;;-145.68;30.51;72176.81;10419558;28;20211;-69
2023/09/07 11:09:04;;;;;;;5.13;2.80;;;;;;;-145.68;31.23;72050.94;10446509;28;20430;-70
2023/09/07 11:14:06;;;;;;;3.28;2.95;;;;;;;-145.68;31.68;72228.75;10405570;28;20282;-70
2023/09/07 11:19:08;;;;;;;4.38;3.30;;;;;;;-145.68;32.94;72296.69;10409343;28;20737;-70
2023/09/07 11:24:08;;;;;;;5.15;2.97;;;;;;;-145.68;31.75;72154.84;10427375;28;20363;-70
2023/09/07 11:29:08;;;;;;;3.90;2.83;;;;;;;-145.68;30.83;71977.00;10410711;28;20189;-70
2023/09/07 11:34:10;;;;;;;4.10;3.03;;;;;;;-145.68;29.79;71929.06;10408709;28;20216;-71
2023/09/07 11:39:13;;;;;;;3.72;2.58;;;;;;;-145.68;29.89;71785.19;10406210;28;20989;-69
2023/09/07 11:44:14;;;;;;;3.63;2.60;;;;;;;-145.68;28.28;71691.28;10436192;28;20207;-70
2023/09/07 11:49:14;;;;;;;3.10;2.80;;;;;;;-145.68;28.67;71977.00;10447516;28;20188;-70
2023/09/07 11:54:15;;;;;;;3.35;2.97;;;;;;;-145.68;28.64;71849.13;10446912;28;21058;-70
2023/09/07 11:59:18;;;;;;;3.47;2.80;;;;;;;-145.68;29.08;71867.13;10447301;28;20208;-70
2023/09/07 12:04:18;;;;;;;5.05;3.17;;;;;;;-145.68;30.48;72256.75;10454327;28;20697;-70
2023/09/07 12:09:19;;;;;;;3.75;3.05;;;;;;;-145.68;30.86;72200.78;10449839;28;20187;-70
2023/09/07 12:14:19;;;;;;;5.53;3.25;;;;;;;-145.68;31.20;72194.78;10455040;28;20212;-70
2023/09/07 12:19:19;;;;;;;4.80;3.30;;;;;;;-145.68;30.93;72140.84;10451519;28;20873;-70
2023/09/07 12:24:20;;;;;;;4.55;3.13;;;;;;;-145.68;32.28;72146.84;10416205;28;20844;-70
2023/09/07 12:29:20;;;;;;;4.15;3.08;;;;;;;-145.68;32.77;72254.75;10415579;28;20189;-70
2023/09/07 12:34:20;;;;;;;5.00;4.45;;;;;;;-145.68;33.61;72346.66;10415464;28;20212;-69
2023/09/07 12:39:21;;;;;;;4.82;3.15;;;;;;;-145.68;32.07;72176.81;10428852;28;20579;-70
2023/09/07 12:44:21;;;;;;;7.43;3.17;;;;;;;-145.68;33.36;72176.81;10449258;28;20212;-69
2023/09/07 12:49:22;;;;;;;3.00;2.70;;;;;;;-145.68;33.09;72302.69;10453719;28;20434;-69
2023/09/07 12:54:22;;;;;;;4.10;3.17;;;;;;;-145.68;33.08;72190.81;10454435;28;20296;-69
2023/09/07 12:59:22;;;;;;;7.13;3.38;;;;;;;-145.68;31.72;72036.94;10455849;28;20436;-69
2023/09/07 13:04:23;;;;;;;6.27;3.20;;;;;;;-145.68;33.26;72264.72;10452689;28;20578;-69
2023/09/07 13:09:23;;;;;;;4.18;3.30;;;;;;;-145.68;32.64;72194.78;10426764;28;20450;-69
2023/09/07 13:14:23;;;;;;;7.60;3.50;;;;;;;-145.68;32.23;72088.91;10411763;28;20228;-70
2023/09/07 13:19:24;;;;;;;3.65;3.10;;;;;;;-145.68;31.78;72090.91;10442863;28;20229;-70
2023/09/07 13:24:24;;;;;;;3.88;3.15;;;;;;;-145.68;32.62;72216.78;10446838;28;20262;-70
2023/09/07 13:29:26;;;;;;;5.97;4.15;;;;;;;-145.68;33.33;72220.78;10413043;28;20196;-71
2023/09/07 13:34:26;;;;;;;10.77;3.67;;;;;;;-145.68;31.82;72098.88;10412390;28;20216;-70
2023/09/07 13:39:27;;;;;;;4.60;3.20;;;;;;;-145.68;31.01;71933.03;10415851;28;20212;-71
2023/09/07 13:44:27;;;;;;;5.45;3.60;;;;;;;-145.68;32.56;72158.84;10408704;28;20269;-70
2023/09/07 13:49:27;;;;;;;3.88;3.22;;;;;;;-145.68;32.92;72192.78;10412164;28;20184;-71
2023/09/07 13:54:28;;;;;;;3.50;3.05;;;;;;;-145.68;31.54;72012.97;10412447;28;20217;-70
2023/09/07 13:59:32;;;;;;;4.57;3.47;;;;;;;-145.68;32.71;72020.97;10414824;28;20211;-71
2023/09/07 14:04:32;;;;;;;5.15;3.60;;;;;;;-145.68;31.63;72028.94;10419932;28;20494;-70
2023/09/07 14:09:33;;;;;;;5.00;3.35;;;;;;;-145.68;32.71;72212.78;10411637;28;20195;-70
2023/09/07 14:14:33;;;;;;;6.15;3.10;;;;;;;-145.68;32.02;72154.84;10426505;28;20220;-70
2023/09/07 14:19:34;;;;;;;3.90;3.38;;;;;;;-145.68;30.58;71973.00;10424052;28;20266;-70
2023/09/07 14:24:34;;;;;;;4.43;3.05;;;;;;;-145.68;31.28;72138.84;10413573;28;20209;-71
2023/09/07 14:29:35;;;;;;;6.07;3.17;;;;;;;-145.68;29.75;71823.16;10449668;28;20197;-72
2023/09/07 14:34:36;;;;;;;5.00;3.08;;;;;;;-145.68;27.18;71521.47;10450551;28;20462;-71
2023/09/07 14:39:37;;;;;;;3.28;2.90;;;;;;;-145.68;28.37;71809.16;10450098;28;20211;-71
2023/09/07 14:44:37;;;;;;;4.00;3.13;;;;;;;-145.68;28.51;71689.31;10450287;28;20702;-72
2023/09/07 14:49:37;;;;;;;4.10;3.03;;;;;;;-145.68;28.61;71657.34;10444550;28;20453;-72
2023/09/07 14:54:40;;;;;;;4.20;3.30;;;;;;;-145.68;27.82;71569.44;10451273;28;20462;-72
2023/09/07 14:59:40;;;;;;;3.88;3.47;;;;;;;-145.68;27.08;71417.59;10448738;28;20485;-71
2023/09/07 15:04:42;;;;;;;6.27;3.07;;;;;;;-145.68;27.38;71483.53;10458411;22;20245;-64
2023/09/07 15:09:43;;;;;;;3.58;2.95;;;;;;;-145.68;27.42;71353.66;10322356;28;20455;-64
2023/09/07 15:14:44;;;;;;;5.13;3.40;;;;;;;-145.68;26.18;71245.78;10327552;28;20207;-63
2023/09/07 15:19:45;;;;;;;6.20;3.13;;;;;;;-145.68;25.98;71199.84;10326970;28;21171;-64
2023/09/07 15:24:45;;;;;;;3.38;2.78;;;;;;;-145.68;28.05;71785.19;10300078;28;20220;-64
2023/09/07 15:29:45;;;;;;;3.60;3.20;;;;;;;-145.68;28.16;71681.31;10299925;28;20191;-63
2023/09/07 15:34:46;;;;;;;3.47;3.03;;;;;;;-145.68;27.65;71419.59;10301608;28;20215;-64
2023/09/07 15:39:46;;;;;;;5.13;2.80;;;;;;;-145.68;26.23;71153.91;10309272;28;21011;-64
2023/09/07 15:44:47;;;;;;;3.87;2.90;;;;;;;-145.68;26.80;71273.75;10308523;28;20469;-64
2023/09/07 15:49:48;;;;;;;3.83;2.70;;;;;;;-145.68;27.83;71681.31;10329309;28;20440;-63
2023/09/07 15:54:48;;;;;;;3.65;2.90;;;;;;;-145.68;27.12;71433.56;10329561;28;20209;-66
2023/09/07 15:59:49;;;;;;;8.60;3.07;;;;;;;-145.68;26.98;71451.56;10333798;28;20209;-64
2023/09/07 16:04:49;;;;;;;5.10;3.30;;;;;;;-145.68;29.08;71843.13;10333191;28;20484;-63
2023/09/07 16:09:50;;;;;;;4.97;3.00;;;;;;;-145.68;27.78;71619.38;10327789;28;20237;-63
2023/09/07 16:14:50;;;;;;;3.93;2.60;;;;;;;-145.68;28.33;71605.38;10330957;28;20478;-64
2023/09/07 16:19:52;;;;;;;3.33;2.70;;;;;;;-145.68;27.32;71411.59;10333085;28;21017;-64
2023/09/07 16:24:52;;;;;;;3.05;2.65;;;;;;;-145.68;27.93;71573.41;10330525;28;20552;-64
2023/09/07 16:29:52;;;;;;;6.33;2.83;;;;;;;-145.68;28.62;71627.38;10330505;28;20233;-64
2023/09/07 16:34:53;;;;;;;4.60;3.13;;;;;;;-145.68;29.13;71757.22;10333913;28;20461;-64
2023/09/07 16:39:54;;;;;;;3.60;2.67;;;;;;;-145.68;31.60;72054.94;10334045;28;20480;-64
2023/09/07 16:44:54;;;;;;;3.58;2.92;;;;;;;-145.68;33.84;72300.69;10333768;28;20229;-64
2023/09/07 16:49:55;;;;;;;6.40;3.27;;;;;;;-145.68;34.73;72256.75;10332325;28;21491;-66
2023/09/07 16:54:55;;;;;;;4.63;3.00;;;;;;;-145.68;33.94;72320.69;10333034;28;20472;-63
2023/09/07 16:59:56;;;;;;;5.17;3.20;;;;;;;-145.68;35.11;72458.56;10331184;28;20305;-63
2023/09/07 17:04:56;;;;;;;4.25;2.90;;;;;;;-145.68;36.68;72552.47;10330034;28;20479;-64
2023/09/07 17:09:56;;;;;;;5.20;3.00;;;;;;;-145.68;39.20;72668.38;10329604;28;20189;-64
2023/09/07 17:14:59;;;;;;;4.72;3.40;;;;;;;-145.68;41.35;72834.25;10306662;28;20228;-65
2023/09/07 17:20:00;;;;;;;6.28;3.13;;;;;;;-145.68;43.87;72922.19;10309125;28;20209;-67
2023/09/07 17:25:01;;;;;;;3.97;3.03;;;;;;;-145.68;45.52;72998.13;10302666;28;20771;-67
2023/09/07 17:30:01;;;;;;;12.60;3.45;;;;;;;-145.68;47.29;73108.06;10304707;28;20318;-68
2023/09/07 17:35:02;;;;;;;6.20;3.83;;;;;;;-145.68;49.00;73196.00;10303534;28;20210;-67
2023/09/07 17:40:03;;;;;;;6.35;3.95;;;;;;;-145.68;50.56;73263.94;10305612;28;20700;-67
2023/09/07 17:45:05;;;;;;;5.05;3.88;;;;;;;-145.68;51.95;73307.91;10305568;28;20202;-67
2023/09/07 17:50:06;;;;;;;5.60;4.15;;;;;;;-145.68;52.83;73353.88;10330592;28;20182;-66
2023/09/07 17:55:07;;;;;;;7.25;4.13;;;;;;;-145.68;53.83;73369.88;10323204;28;20221;-66
2023/09/07 18:00:08;;;;;;;7.72;5.03;;;;;;;-145.68;55.51;73415.84;10330172;28;20582;-66
2023/09/07 18:05:10;;;;;;;8.73;4.45;;;;;;;-145.68;56.84;73439.84;10329868;28;20240;-67
2023/09/07 18:10:11;;;;;;;5.82;3.92;;;;;;;-145.68;58.15;73477.81;10330024;28;20197;-67
2023/09/07 18:15:11;;;;;;;7.43;4.57;;;;;;;-145.68;59.21;73503.78;10329654;28;20206;-67
2023/09/07 18:20:11;;;;;;;8.57;4.28;;;;;;;-145.68;60.07;73527.78;10329799;28;20225;-67
2023/09/07 18:25:12;;;;;;;7.95;4.38;;;;;;;-145.68;60.87;73551.75;10328838;28;20711;-67
2023/09/07 18:30:12;;;;;;;7.60;4.10;;;;;;;-145.68;62.22;73575.75;10329271;28;20194;-68
2023/09/07 18:35:13;;;;;;;8.38;4.25;;;;;;;-145.68;63.21;73603.72;10329188;28;20230;-68
2023/09/07 18:40:14;;;;;;;5.28;3.70;;;;;;;-145.68;63.98;73615.72;10328949;28;20573;-67
2023/09/07 18:45:14;;;;;;;6.47;4.40;;;;;;;-145.68;65.53;73653.69;10328251;28;20264;-68
2023/09/07 18:50:14;;;;;;;5.55;4.38;;;;;;;-145.68;66.64;73659.69;10328773;28;20245;-67
2023/09/07 18:55:15;;;;;;;9.18;4.97;;;;;;;-145.68;66.78;73677.69;10328315;28;20260;-68
2023/09/07 19:00:15;;;;;;;5.50;4.03;;;;;;;-145.68;67.93;73687.69;10328147;28;20206;-67
2023/09/07 19:05:16;;;;;;;6.18;4.18;;;;;;;-145.68;68.76;73729.66;10327658;28;20249;-67
2023/09/07 19:10:16;;;;;;;11.10;6.50;;;;;;;-145.68;69.73;73759.66;10327253;28;20236;-67
2023/09/07 19:15:17;;;;;;;7.13;4.22;;;;;;;-145.68;72.18;73793.63;10327825;28;20622;-67
2023/09/07 19:20:17;;;;;;;5.85;4.38;;;;;;;-145.68;73.44;73813.63;10326283;28;20229;-67
2023/09/07 19:25:17;;;;;;;8.80;4.78;;;;;;;-145.68;75.61;73849.59;10327558;28;20217;-67
2023/09/07 19:30:18;;;;;;;5.68;4.47;;;;;;;-145.68;76.02;73835.59;10327450;28;20232;-67
2023/09/07 19:35:18;;;;;;;7.22;4.10;;;;;;;-145.68;75.88;73839.59;10326851;28;20206;-67
2023/09/07 19:40:19;;;;;;;7.47;4.45;;;;;;;-145.68;75.72;73845.59;10327163;28;20221;-67
2023/09/07 19:45:19;;;;;;;9.75;4.78;;;;;;;-145.68;76.07;73839.59;10325808;28;20700;-67
2023/09/07 19:50:21;;;;;;;12.45;5.03;;;;;;;-145.68;76.50;73849.59;10327263;28;20668;-67
2023/09/07 19:55:22;;;;;;;6.10;4.07;;;;;;;-145.68;76.29;73859.59;10326932;28;20214;-67
2023/09/07 20:00:24;;;;;;;5.65;4.07;;;;;;;-145.68;76.04;73867.59;10327208;28;20596;-67
2023/09/07 20:05:25;;;;;;;7.38;4.43;;;;;;;-145.68;76.85;73897.56;10327089;28;20241;-67
2023/09/07 20:10:26;;;;;;;7.68;4.28;;;;;;;-145.68;77.51;73899.56;10326624;28;20189;-67
2023/09/07 20:15:26;;;;;;;5.15;3.72;;;;;;;-145.68;78.00;73909.56;10309533;28;20216;-66
2023/09/07 20:20:27;;;;;;;7.07;4.00;;;;;;;-145.68;77.97;73927.56;10310548;28;20214;-67
2023/09/07 20:25:27;;;;;;;4.70;3.50;;;;;;;-145.68;77.08;73925.56;10333349;28;20214;-67
2023/09/07 20:30:28;;;;;;;8.50;4.00;;;;;;;-145.68;76.36;73931.56;10333693;28;20190;-66
2023/09/07 20:35:30;;;;;;;7.93;3.95;;;;;;;-145.68;76.16;73935.56;10333625;28;20259;-67
2023/09/07 20:40:31;;;;;;;8.63;4.03;;;;;;;-145.68;75.98;73935.56;10333743;28;20268;-66
2023/09/07 20:45:31;;;;;;;6.40;3.97;;;;;;;-145.68;76.30;73959.53;10333287;28;20255;-67
2023/09/07 20:50:32;;;;;;;8.15;4.32;;;;;;;-145.68;76.84;73973.53;10333337;28;20185;-67
2023/09/07 20:55:32;;;;;;;9.25;3.80;;;;;;;-145.68;77.37;73965.53;10333189;28;20213;-67
2023/09/07 21:00:32;;;;;;;5.28;3.78;;;;;;;-145.68;78.12;73987.53;10333135;28;20241;-66
2023/09/07 21:05:33;;;;;;;5.13;3.85;;;;;;;-145.68;79.37;73991.53;10357607;22;20244;-71
2023/09/07 21:10:33;;;;;;;6.97;3.53;;;;;;;-145.68;80.94;74015.50;10411825;28;20570;-70
2023/09/07 21:15:34;;;;;;;7.00;4.38;;;;;;;-145.68;82.04;74039.50;10442357;28;20633;-70
2023/09/07 21:20:35;;;;;;;6.90;3.95;;;;;;;-145.68;84.06;74063.50;10453804;28;20212;-69
2023/09/07 21:25:35;;;;;;;5.43;3.97;;;;;;;-145.68;85.50;74065.50;10453788;28;20300;-69
2023/09/07 21:30:35;;;;;;;7.68;4.35;;;;;;;-145.68;86.86;74071.50;10453354;28;20180;-70
2023/09/07 21:35:36;;;;;;;8.48;3.80;;;;;;;-145.68;87.55;74071.50;10452548;28;20751;-71
2023/09/07 21:40:36;;;;;;;9.05;4.82;;;;;;;-145.68;88.74;74089.47;10410376;28;20209;-71
2023/09/07 21:45:37;;;;;;;6.90;3.90;;;;;;;-145.68;91.16;74109.47;10414481;28;20212;-69
2023/09/07 21:50:37;;;;;;;6.70;4.13;;;;;;;-145.68;92.93;74113.47;10418087;28;20669;-70
2023/09/07 21:55:37;;;;;;;8.45;3.92;;;;;;;-145.68;94.82;74115.47;10429272;28;20219;-69
2023/09/07 22:00:38;;;;;;;8.60;4.10;;;;;;;-145.68;96.51;74127.47;10413907;28;20793;-70
2023/09/07 22:05:38;;;;;;;8.38;4.55;;;;;;;-145.68;98.63;74141.47;10413053;28;20224;-70
2023/09/07 22:10:40;;;;;;;7.80;4.18;;;;;;;-145.68;99.75;74145.47;10425187;28;20188;-71
2023/09/07 22:15:40;;;;;;;10.70;5.05;;;;;;;-145.68;100.00;74147.47;10451435;28;20203;-70
2023/09/07 22:20:40;;;;;;;7.72;4.53;;;;;;;-145.68;100.00;74173.44;10451489;28;20705;-70
2023/09/07 22:25:41;;;;;;;10.82;5.10;;;;;;;-145.68;100.00;74199.44;10451275;28;20620;-71
2023/09/07 22:30:41;;;;;;;10.93;4.40;;;;;;;-145.68;100.00;74203.44;10450833;28;20275;-70
2023/09/07 22:35:42;;;;;;;8.20;4.70;;;;;;;-145.68;100.00;74201.44;10450823;28;20208;-70
2023/09/07 22:40:42;;;;;;;10.30;4.30;;;;;;;-145.68;100.00;74219.44;10450613;28;20215;-70